createdAt,value
2023-04-09T00:01:18.206Z,8.79
2023-04-09T00:04:22.271Z,8.75
2023-04-09T00:07:25.034Z,8.79
2023-04-09T00:10:27.635Z,8.76
2023-04-09T00:16:37.254Z,8.72
2023-04-09T00:19:39.892Z,8.75
2023-04-09T00:22:42.605Z,8.78
2023-04-09T00:25:45.169Z,8.74
2023-04-09T00:28:47.754Z,8.70
2023-04-09T00:31:51.775Z,8.73
2023-04-09T00:34:54.354Z,8.78
2023-04-09T00:37:56.969Z,8.72
2023-04-09T00:40:59.622Z,8.72
2023-04-09T00:44:02.446Z,8.74
2023-04-09T00:47:06.571Z,8.79
2023-04-09T00:50:10.159Z,8.73
2023-04-09T00:53:13.674Z,8.59
2023-04-09T00:56:18.413Z,8.70
2023-04-09T00:59:21.004Z,8.70
2023-04-09T01:02:25.039Z,8.58
2023-04-09T01:05:35.547Z,8.68
2023-04-09T01:08:47.657Z,8.65
2023-04-09T01:11:59.308Z,8.70
2023-04-09T01:15:07.059Z,8.64
2023-04-09T01:18:14.504Z,8.64
2023-04-09T01:21:21.394Z,8.70
2023-04-09T01:24:39.520Z,8.55
2023-04-09T01:27:53.822Z,8.60
2023-04-09T01:31:08.757Z,8.65
2023-04-09T01:34:12.549Z,8.64
2023-04-09T01:37:17.017Z,8.61
2023-04-09T01:40:19.832Z,8.66
2023-04-09T01:43:23.204Z,8.67
2023-04-09T01:46:27.262Z,8.66
2023-04-09T01:49:30.712Z,8.68
2023-04-09T01:52:33.483Z,8.61
2023-04-09T01:55:36.083Z,8.65
2023-04-09T01:58:38.706Z,8.64
2023-04-09T02:01:47.196Z,8.63
2023-04-09T02:04:52.836Z,8.64
2023-04-09T02:07:57.554Z,8.66
2023-04-09T02:11:03.167Z,8.61
2023-04-09T02:14:08.547Z,8.62
2023-04-09T02:17:12.660Z,8.58
2023-04-09T02:20:18.458Z,8.60
2023-04-09T02:23:21.111Z,8.59
2023-04-09T02:26:24.470Z,8.63
2023-04-09T02:29:27.044Z,8.67
2023-04-09T02:32:31.062Z,8.65
2023-04-09T02:35:33.991Z,8.62
2023-04-09T02:38:36.576Z,8.56
2023-04-09T02:41:39.174Z,8.60
2023-04-09T02:44:41.772Z,8.57
2023-04-09T02:47:45.757Z,8.52
2023-04-09T02:50:48.368Z,8.60
2023-04-09T02:53:50.994Z,8.57
2023-04-09T02:56:53.576Z,8.61
2023-04-09T02:59:56.744Z,8.63
2023-04-09T03:03:00.919Z,8.63
2023-04-09T03:06:03.989Z,8.65
2023-04-09T03:09:06.564Z,8.62
2023-04-09T03:12:09.133Z,8.61
2023-04-09T03:15:12.220Z,8.62
2023-04-09T03:18:16.191Z,8.64
2023-04-09T03:21:18.758Z,8.64
2023-04-09T03:24:21.588Z,8.65
2023-04-09T03:27:24.175Z,8.61
2023-04-09T03:30:26.789Z,8.60
2023-04-09T03:33:30.790Z,8.62
2023-04-09T03:36:33.714Z,8.62
2023-04-09T03:39:36.307Z,8.61
2023-04-09T03:42:38.954Z,8.63
2023-04-09T03:45:41.588Z,8.57
2023-04-09T03:48:45.777Z,8.51
2023-04-09T03:51:48.444Z,8.52
2023-04-09T03:54:51.056Z,8.59
2023-04-09T03:57:53.648Z,8.61
2023-04-09T04:00:56.268Z,8.64
2023-04-09T04:04:00.332Z,8.61
2023-04-09T04:07:04.406Z,8.62
2023-04-09T04:10:08.093Z,8.55
2023-04-09T04:13:10.720Z,8.63
2023-04-09T04:16:13.402Z,8.61
2023-04-09T04:19:17.389Z,8.63
2023-04-09T04:22:19.988Z,8.66
2023-04-09T04:25:22.549Z,8.59
2023-04-09T04:28:25.365Z,8.60
2023-04-09T04:31:27.992Z,8.56
2023-04-09T04:34:31.952Z,8.60
2023-04-09T04:37:35.044Z,8.57
2023-04-09T04:40:37.787Z,8.60
2023-04-09T04:43:41.389Z,8.56
2023-04-09T04:46:44.028Z,8.60
2023-04-09T04:49:47.963Z,8.57
2023-04-09T04:52:50.531Z,8.55
2023-04-09T04:55:53.152Z,8.54
2023-04-09T04:58:55.753Z,8.60
2023-04-09T05:01:58.790Z,8.60
2023-04-09T05:05:02.785Z,8.60
2023-04-09T05:08:05.858Z,8.64
2023-04-09T05:11:08.463Z,8.61
2023-04-09T05:14:11.230Z,8.63
2023-04-09T05:17:13.829Z,8.60
2023-04-09T05:20:17.830Z,8.63
2023-04-09T05:23:20.547Z,8.63
2023-04-09T05:26:23.141Z,8.64
2023-04-09T05:29:25.921Z,8.54
2023-04-09T05:32:28.544Z,8.66
2023-04-09T05:35:32.556Z,8.80
2023-04-09T05:38:35.325Z,8.75
2023-04-09T05:41:38.674Z,8.66
2023-04-09T05:44:41.377Z,8.71
2023-04-09T05:47:44.002Z,8.63
2023-04-09T05:50:55.227Z,8.72
2023-04-09T05:53:59.312Z,8.71
2023-04-09T05:57:01.892Z,8.68
2023-04-09T06:00:05.028Z,8.70
2023-04-09T06:03:07.769Z,8.75
2023-04-09T06:06:11.832Z,8.80
2023-04-09T06:09:14.397Z,8.79
2023-04-09T06:12:17.328Z,8.89
2023-04-09T06:15:20.644Z,8.81
2023-04-09T06:18:23.283Z,8.77
2023-04-09T06:21:27.209Z,8.86
2023-04-09T06:24:31.881Z,8.86
2023-04-09T06:27:34.507Z,8.88
2023-04-09T06:30:37.708Z,8.92
2023-04-09T06:33:40.334Z,9.01
2023-04-09T06:36:44.540Z,9.03
2023-04-09T06:39:58.211Z,9.04
2023-04-09T06:43:03.607Z,9.06
2023-04-09T06:46:06.492Z,9.10
2023-04-09T06:49:09.216Z,9.15
2023-04-09T06:52:13.159Z,9.18
2023-04-09T06:55:15.781Z,9.21
2023-04-09T06:58:18.389Z,9.31
2023-04-09T07:01:21.227Z,9.33
2023-04-09T07:04:23.951Z,9.37
2023-04-09T07:07:28.031Z,9.40
2023-04-09T07:10:30.796Z,9.03
2023-04-09T07:13:33.589Z,9.37
2023-04-09T07:16:36.313Z,9.37
2023-04-09T07:19:38.923Z,9.39
2023-04-09T07:22:42.889Z,9.46
2023-04-09T07:25:45.488Z,9.54
2023-04-09T07:28:48.079Z,9.51
2023-04-09T07:31:50.886Z,9.54
2023-04-09T07:34:54.252Z,9.43
2023-04-09T07:37:58.723Z,9.66
2023-04-09T07:41:01.391Z,9.45
2023-04-09T07:44:04.058Z,9.66
2023-04-09T07:47:08.312Z,9.72
2023-04-09T07:50:11.458Z,9.83
2023-04-09T07:53:15.522Z,9.94
2023-04-09T07:56:18.169Z,9.92
2023-04-09T07:59:20.804Z,9.82
2023-04-09T08:02:23.923Z,9.83
2023-04-09T08:05:27.074Z,9.93
2023-04-09T08:08:31.029Z,9.94
2023-04-09T08:11:33.865Z,9.91
2023-04-09T08:14:36.694Z,10.01
2023-04-09T08:17:39.263Z,10.03
2023-04-09T08:20:45.170Z,10.00
2023-04-09T08:23:49.394Z,9.96
2023-04-09T08:26:51.982Z,10.12
2023-04-09T08:29:54.597Z,10.06
2023-04-09T08:32:57.393Z,10.09
2023-04-09T08:36:02.694Z,10.21
2023-04-09T08:39:07.249Z,10.39
2023-04-09T08:42:12.513Z,10.47
2023-04-09T08:45:15.380Z,10.50
2023-04-09T08:48:19.184Z,10.49
2023-04-09T08:51:23.380Z,10.36
2023-04-09T08:54:27.354Z,10.21
2023-04-09T08:57:29.984Z,10.48
2023-04-09T09:00:32.592Z,10.60
2023-04-09T09:03:54.709Z,10.61
2023-04-09T09:07:07.766Z,10.30
2023-04-09T09:10:12.146Z,10.62
2023-04-09T09:13:19.763Z,10.06
2023-04-09T09:16:22.475Z,10.38
2023-04-09T09:19:31.269Z,10.57
2023-04-09T09:22:55.191Z,10.70
2023-04-09T09:25:59.746Z,10.76
2023-04-09T09:29:05.746Z,10.74
2023-04-09T09:32:14.353Z,10.76
2023-04-09T09:35:17.083Z,10.78
2023-04-09T09:38:19.692Z,10.55
2023-04-09T09:41:24.747Z,10.68
2023-04-09T09:44:36.485Z,10.78
2023-04-09T09:47:39.303Z,10.90
2023-04-09T09:50:43.774Z,11.03
2023-04-09T09:53:49.142Z,10.89
2023-04-09T09:56:56.416Z,10.98
2023-04-09T10:00:03.081Z,10.80
2023-04-09T10:03:14.145Z,10.90
2023-04-09T10:06:17.093Z,11.06
2023-04-09T10:09:22.076Z,11.08
2023-04-09T10:12:27.157Z,10.95
2023-04-09T10:15:30.972Z,11.07
2023-04-09T10:18:34.652Z,10.99
2023-04-09T10:21:43.640Z,11.09
2023-04-09T10:24:47.104Z,11.09
2023-04-09T10:28:00.700Z,11.16
2023-04-09T10:31:05.645Z,11.37
2023-04-09T10:34:10.308Z,11.35
2023-04-09T10:37:16.881Z,11.41
2023-04-09T10:40:20.440Z,11.28
2023-04-09T10:43:24.361Z,11.06
2023-04-09T10:46:28.430Z,11.40
2023-04-09T10:49:37.754Z,11.87
2023-04-09T10:52:41.556Z,11.92
2023-04-09T10:55:49.999Z,12.02
2023-04-09T10:58:54.354Z,12.60
2023-04-09T11:01:57.192Z,12.81
2023-04-09T11:05:07.951Z,12.41
2023-04-09T11:08:12.244Z,12.43
2023-04-09T11:11:14.858Z,12.31
2023-04-09T11:14:22.030Z,13.14
2023-04-09T11:17:24.770Z,13.50
2023-04-09T11:20:27.543Z,13.43
2023-04-09T11:23:30.569Z,13.62
2023-04-09T11:26:37.095Z,14.04
2023-04-09T11:29:42.354Z,14.74
2023-04-09T11:32:45.671Z,14.60
2023-04-09T11:35:48.955Z,14.28
2023-04-09T11:38:51.883Z,14.77
2023-04-09T11:41:54.644Z,14.80
2023-04-09T11:44:59.270Z,15.89
2023-04-09T11:48:03.519Z,16.13
2023-04-09T11:51:06.453Z,17.17
2023-04-09T11:54:09.593Z,17.42
2023-04-09T11:57:12.202Z,18.00
2023-04-09T12:00:18.100Z,18.56
2023-04-09T12:03:29.178Z,18.95
2023-04-09T12:06:31.869Z,19.36
2023-04-09T12:09:34.476Z,19.22
2023-04-09T12:12:44.800Z,19.30
2023-04-09T12:15:50.339Z,19.23
2023-04-09T12:18:55.756Z,19.48
2023-04-09T12:21:58.684Z,19.85
2023-04-09T12:25:01.316Z,20.16
2023-04-09T12:28:04.456Z,19.57
2023-04-09T12:31:11.907Z,20.06
2023-04-09T12:34:15.033Z,19.96
2023-04-09T12:37:17.590Z,19.41
2023-04-09T12:40:21.401Z,20.08
2023-04-09T12:43:24.107Z,20.28
2023-04-09T12:46:28.301Z,20.39
2023-04-09T12:49:31.097Z,19.92
2023-04-09T12:52:34.545Z,20.72
2023-04-09T12:55:37.199Z,19.94
2023-04-09T12:58:39.764Z,20.57
2023-04-09T13:01:43.797Z,20.54
2023-04-09T13:04:46.409Z,20.82
2023-04-09T13:07:48.989Z,20.71
2023-04-09T13:10:51.711Z,20.74
2023-04-09T13:13:54.485Z,21.15
2023-04-09T13:16:58.720Z,21.33
2023-04-09T13:20:01.429Z,21.12
2023-04-09T13:23:04.405Z,20.90
2023-04-09T13:26:07.077Z,20.34
2023-04-09T13:29:09.672Z,21.08
2023-04-09T13:32:13.608Z,21.08
2023-04-09T13:35:16.269Z,20.83
2023-04-09T13:38:19.987Z,21.01
2023-04-09T13:41:27.575Z,21.14
2023-04-09T13:44:30.251Z,21.19
2023-04-09T13:47:34.334Z,21.21
2023-04-09T13:50:37.174Z,21.20
2023-04-09T13:53:39.768Z,20.11
2023-04-09T13:56:42.391Z,19.98
2023-04-09T13:59:45.022Z,20.31
2023-04-09T14:02:49.017Z,19.69
2023-04-09T14:05:51.822Z,20.11
2023-04-09T14:08:54.672Z,19.84
2023-04-09T14:11:57.332Z,19.17
2023-04-09T14:14:59.934Z,19.32
2023-04-09T14:18:03.942Z,18.81
2023-04-09T14:21:09.858Z,18.55
2023-04-09T14:24:12.881Z,18.79
2023-04-09T14:27:15.668Z,18.33
2023-04-09T14:30:18.727Z,18.31
2023-04-09T14:33:22.711Z,18.03
2023-04-09T14:36:26.953Z,18.19
2023-04-09T14:39:29.676Z,17.99
2023-04-09T14:42:32.280Z,18.08
2023-04-09T14:45:34.874Z,17.45
2023-04-09T14:48:40.185Z,17.64
2023-04-09T14:51:42.838Z,17.44
2023-04-09T14:54:46.282Z,17.35
2023-04-09T14:57:48.885Z,16.96
2023-04-09T15:00:51.710Z,16.86
2023-04-09T15:03:56.072Z,17.15
2023-04-09T15:06:58.740Z,17.15
2023-04-09T15:10:01.643Z,17.18
2023-04-09T15:13:04.253Z,16.73
2023-04-09T15:16:07.839Z,16.60
2023-04-09T15:19:11.796Z,16.59
2023-04-09T15:22:14.396Z,16.62
2023-04-09T15:25:17.616Z,16.86
2023-04-09T15:28:20.398Z,16.74
2023-04-09T15:31:23.078Z,16.65
2023-04-09T15:34:27.069Z,15.88
2023-04-09T15:37:29.646Z,15.62
2023-04-09T15:40:32.335Z,15.78
2023-04-09T15:43:35.086Z,16.02
2023-04-09T15:46:39.010Z,15.62
2023-04-09T15:49:43.020Z,15.79
2023-04-09T15:52:46.309Z,15.90
2023-04-09T15:55:49.327Z,15.99
2023-04-09T15:58:52.304Z,15.93
2023-04-09T16:01:55.265Z,15.95
2023-04-09T16:04:59.239Z,15.35
2023-04-09T16:08:02.070Z,15.65
2023-04-09T16:11:05.547Z,15.68
2023-04-09T16:14:09.214Z,15.74
2023-04-09T16:17:11.837Z,15.61
2023-04-09T16:20:16.016Z,15.78
2023-04-09T16:23:18.602Z,15.43
2023-04-09T16:26:21.190Z,15.25
2023-04-09T16:29:23.764Z,15.38
2023-04-09T16:32:26.461Z,15.29
2023-04-09T16:35:30.499Z,15.17
2023-04-09T16:38:33.115Z,15.17
2023-04-09T16:41:36.950Z,15.05
2023-04-09T16:44:39.770Z,15.06
2023-04-09T16:47:42.361Z,15.11
2023-04-09T16:50:46.320Z,15.15
2023-04-09T16:53:49.046Z,15.06
2023-04-09T16:56:51.600Z,14.74
2023-04-09T16:59:54.228Z,14.78
2023-04-09T17:02:57.938Z,14.17
2023-04-09T17:06:02.526Z,14.41
2023-04-09T17:09:06.341Z,14.25
2023-04-09T17:12:09.709Z,14.26
2023-04-09T17:15:12.657Z,13.82
2023-04-09T17:18:15.290Z,13.88
2023-04-09T17:21:19.267Z,14.03
2023-04-09T17:24:21.869Z,13.88
2023-04-09T17:27:24.466Z,13.93
2023-04-09T17:30:27.470Z,13.93
2023-04-09T17:33:30.092Z,13.91
2023-04-09T17:36:34.048Z,13.70
2023-04-09T17:39:36.844Z,13.62
2023-04-09T17:42:39.933Z,13.32
2023-04-09T17:45:42.559Z,13.29
2023-04-09T17:48:45.436Z,13.34
2023-04-09T17:51:49.630Z,13.38
2023-04-09T17:54:52.213Z,12.94
2023-04-09T17:57:55.027Z,13.16
2023-04-09T18:00:59.423Z,13.06
2023-04-09T18:04:02.223Z,13.01
2023-04-09T18:07:07.096Z,12.99
2023-04-09T18:10:10.433Z,12.96
2023-04-09T18:13:13.009Z,12.82
2023-04-09T18:16:17.396Z,12.70
2023-04-09T18:19:20.041Z,12.64
2023-04-09T18:22:23.975Z,12.51
2023-04-09T18:25:28.488Z,12.50
2023-04-09T18:28:31.122Z,12.43
2023-04-09T18:31:33.791Z,12.33
2023-04-09T18:34:37.315Z,12.29
2023-04-09T18:37:41.298Z,12.17
2023-04-09T18:40:44.745Z,12.11
2023-04-09T18:43:48.304Z,12.06
2023-04-09T18:46:51.191Z,12.00
2023-04-09T18:49:53.867Z,12.00
2023-04-09T18:52:57.814Z,12.01
2023-04-09T18:56:00.383Z,11.89
2023-04-09T18:59:03.030Z,11.82
2023-04-09T19:02:06.017Z,11.77
2023-04-09T19:05:09.587Z,11.69
2023-04-09T19:08:14.707Z,11.37
2023-04-09T19:11:17.290Z,11.52
2023-04-09T19:14:19.891Z,11.51
2023-04-09T19:17:22.711Z,11.54
2023-04-09T19:20:25.313Z,11.46
2023-04-09T19:23:29.900Z,11.52
2023-04-09T19:26:32.484Z,11.55
2023-04-09T19:29:35.163Z,11.47
2023-04-09T19:32:38.187Z,11.41
2023-04-09T19:35:41.441Z,11.34
2023-04-09T19:38:45.397Z,11.25
2023-04-09T19:41:47.969Z,11.09
2023-04-09T19:44:50.603Z,11.04
2023-04-09T19:47:55.518Z,11.03
2023-04-09T19:50:58.521Z,11.02
2023-04-09T19:54:02.497Z,10.95
2023-04-09T19:57:05.495Z,10.99
2023-04-09T20:00:09.482Z,10.94
2023-04-09T20:03:12.272Z,10.83
2023-04-09T20:06:15.037Z,10.77
2023-04-09T20:09:18.989Z,10.70
2023-04-09T20:12:23.690Z,10.70
2023-04-09T20:15:26.518Z,10.71
2023-04-09T20:18:29.264Z,10.67
2023-04-09T20:21:31.861Z,10.63
2023-04-09T20:24:36.647Z,10.59
2023-04-09T20:27:39.511Z,10.66
2023-04-09T20:30:42.791Z,10.70
2023-04-09T20:33:45.407Z,10.56
2023-04-09T20:36:48.618Z,10.53
2023-04-09T20:39:52.565Z,10.47
2023-04-09T20:42:55.527Z,10.40
2023-04-09T20:45:58.179Z,10.35
2023-04-09T20:49:01.434Z,10.37
2023-04-09T20:52:04.051Z,10.47
2023-04-09T20:55:09.028Z,10.42
2023-04-09T20:58:11.630Z,10.33
2023-04-09T21:01:14.230Z,10.32
2023-04-09T21:04:16.955Z,10.31
2023-04-09T21:07:19.621Z,10.19
2023-04-09T21:10:23.594Z,10.21
2023-04-09T21:13:27.205Z,10.20
2023-04-09T21:16:30.855Z,10.10
2023-04-09T21:19:33.525Z,10.13
2023-04-09T21:22:36.265Z,10.10
2023-04-09T21:25:40.831Z,10.05
2023-04-09T21:28:43.769Z,10.11
2023-04-09T21:31:46.387Z,10.04
2023-04-09T21:34:49.005Z,9.91
2023-04-09T21:37:51.647Z,9.97
2023-04-09T21:40:55.605Z,9.93
2023-04-09T21:43:58.178Z,9.92
2023-04-09T21:47:01.401Z,9.91
2023-04-09T21:50:04.427Z,9.94
2023-04-09T21:53:07.040Z,9.91
2023-04-09T21:56:11.361Z,9.89
2023-04-09T21:59:13.945Z,9.83
2023-04-09T22:02:16.667Z,9.87
2023-04-09T22:05:19.559Z,9.80
2023-04-09T22:08:22.194Z,9.73
2023-04-09T22:11:28.436Z,9.65
2023-04-09T22:14:33.180Z,9.71
2023-04-09T22:17:35.900Z,9.63
2023-04-09T22:20:38.530Z,9.55
2023-04-09T22:23:41.099Z,9.61
2023-04-09T22:26:46.637Z,9.59
2023-04-09T22:29:49.234Z,9.63
2023-04-09T22:32:52.157Z,9.57
2023-04-09T22:35:54.931Z,9.53
2023-04-09T22:38:57.667Z,9.43
2023-04-09T22:42:01.787Z,9.52
2023-04-09T22:45:04.840Z,9.54
2023-04-09T22:48:08.017Z,9.46
2023-04-09T22:51:10.600Z,9.22
2023-04-09T22:54:13.348Z,9.13
2023-04-09T22:57:17.304Z,9.12
2023-04-09T23:00:20.253Z,9.35
2023-04-09T23:03:23.028Z,9.20
2023-04-09T23:06:26.172Z,9.28
2023-04-09T23:09:30.216Z,9.31
2023-04-09T23:12:34.187Z,9.18
2023-04-09T23:15:36.759Z,9.29
2023-04-09T23:18:39.427Z,9.28
2023-04-09T23:21:42.091Z,9.13
2023-04-09T23:24:44.711Z,9.18
2023-04-09T23:27:48.704Z,9.09
2023-04-09T23:30:51.358Z,9.05
2023-04-09T23:33:54.180Z,9.01
2023-04-09T23:36:56.976Z,9.04
2023-04-09T23:39:59.553Z,9.22
2023-04-09T23:43:03.591Z,9.20
2023-04-09T23:46:06.476Z,9.16
2023-04-09T23:49:09.069Z,9.20
2023-04-09T23:52:11.650Z,9.15
2023-04-09T23:55:15.318Z,9.06
2023-04-09T23:58:19.663Z,9.06
